sensor_id;sensor_type;location;lat;lon;timestamp;temperature;humidity
3332;DHT22;1678;50.94845400;5.30809100;2023-02-01T01:28:06;6.30;99.90
3332;DHT22;1678;50.94845400;5.30809100;2023-02-01T01:30:35;6.30;99.90
3332;DHT22;1678;50.94845400;5.30809100;2023-02-01T01:33:03;6.30;99.90
3332;DHT22;1678;50.94845400;5.30809100;2023-02-01T15:28:01;9.50;1.00
3332;DHT22;1678;50.94845400;5.30809100;2023-02-01T15:30:31;9.40;14.60
3332;DHT22;1678;50.94845400;5.30809100;2023-02-01T15:33:07;9.40;22.60
3332;DHT22;1678;50.94845400;5.30809100;2023-02-01T15:35:39;9.40;30.40
3332;DHT22;1678;50.94845400;5.30809100;2023-02-01T15:38:33;9.50;33.50
3332;DHT22;1678;50.94845400;5.30809100;2023-02-01T15:41:08;9.50;28.80
3332;DHT22;1678;50.94845400;5.30809100;2023-02-01T15:43:40;9.40;61.00
3332;DHT22;1678;50.94845400;5.30809100;2023-02-01T15:46:12;9.40;99.90
3332;DHT22;1678;50.94845400;5.30809100;2023-02-01T15:48:46;9.40;99.90
3332;DHT22;1678;50.94845400;5.30809100;2023-02-01T15:51:17;9.40;99.90
3332;DHT22;1678;50.94845400;5.30809100;2023-02-01T15:53:52;9.40;99.90
3332;DHT22;1678;50.94845400;5.30809100;2023-02-01T15:56:27;9.40;99.90
3332;DHT22;1678;50.94845400;5.30809100;2023-02-01T15:59:00;9.30;99.90
3332;DHT22;1678;50.94845400;5.30809100;2023-02-01T16:01:29;9.20;99.90
3332;DHT22;1678;50.94845400;5.30809100;2023-02-01T16:04:13;9.10;99.90
3332;DHT22;1678;50.94845400;5.30809100;2023-02-01T16:06:48;9.10;1.00
3332;DHT22;1678;50.94845400;5.30809100;2023-02-01T16:09:18;9.00;1.00
3332;DHT22;1678;50.94845400;5.30809100;2023-02-01T16:11:55;8.90;87.80
3332;DHT22;1678;50.94845400;5.30809100;2023-02-01T16:14:25;8.90;99.90
3332;DHT22;1678;50.94845400;5.30809100;2023-02-01T16:16:56;9.00;99.90
3332;DHT22;1678;50.94845400;5.30809100;2023-02-01T16:19:24;8.90;99.90
3332;DHT22;1678;50.94845400;5.30809100;2023-02-01T16:21:55;9.00;99.90
3332;DHT22;1678;50.94845400;5.30809100;2023-02-01T16:24:25;9.00;89.90
3332;DHT22;1678;50.94845400;5.30809100;2023-02-01T16:26:53;9.00;99.90
3332;DHT22;1678;50.94845400;5.30809100;2023-02-01T16:29:21;9.00;20.10
3332;DHT22;1678;50.94845400;5.30809100;2023-02-01T16:31:51;9.00;1.00
3332;DHT22;1678;50.94845400;5.30809100;2023-02-01T16:34:19;9.00;34.70
3332;DHT22;1678;50.94845400;5.30809100;2023-02-01T16:36:48;9.00;27.90
3332;DHT22;1678;50.94845400;5.30809100;2023-02-01T16:39:18;9.00;26.40
3332;DHT22;1678;50.94845400;5.30809100;2023-02-01T16:41:47;9.00;13.50
3332;DHT22;1678;50.94845400;5.30809100;2023-02-01T16:44:15;9.00;18.10
3332;DHT22;1678;50.94845400;5.30809100;2023-02-01T16:46:44;9.00;95.80
3332;DHT22;1678;50.94845400;5.30809100;2023-02-01T16:49:19;9.00;45.90
3332;DHT22;1678;50.94845400;5.30809100;2023-02-01T16:51:48;8.90;99.90
3332;DHT22;1678;50.94845400;5.30809100;2023-02-01T16:54:19;8.90;99.90
3332;DHT22;1678;50.94845400;5.30809100;2023-02-01T16:56:48;8.80;1.00
3332;DHT22;1678;50.94845400;5.30809100;2023-02-01T16:59:16;8.90;1.00
3332;DHT22;1678;50.94845400;5.30809100;2023-02-01T17:01:44;8.90;1.00
3332;DHT22;1678;50.94845400;5.30809100;2023-02-01T17:04:12;8.90;1.00
3332;DHT22;1678;50.94845400;5.30809100;2023-02-01T17:06:41;8.90;1.00
3332;DHT22;1678;50.94845400;5.30809100;2023-02-01T17:09:13;8.90;1.00
3332;DHT22;1678;50.94845400;5.30809100;2023-02-01T17:11:42;8.90;1.00
3332;DHT22;1678;50.94845400;5.30809100;2023-02-01T17:14:14;8.90;1.00
3332;DHT22;1678;50.94845400;5.30809100;2023-02-01T17:16:44;8.90;56.10
3332;DHT22;1678;50.94845400;5.30809100;2023-02-01T17:19:16;8.80;45.20
3332;DHT22;1678;50.94845400;5.30809100;2023-02-01T17:21:48;8.80;66.90
3332;DHT22;1678;50.94845400;5.30809100;2023-02-01T17:24:20;8.80;99.90
3332;DHT22;1678;50.94845400;5.30809100;2023-02-01T17:26:49;8.80;99.90
3332;DHT22;1678;50.94845400;5.30809100;2023-02-01T17:29:18;8.70;99.90
3332;DHT22;1678;50.94845400;5.30809100;2023-02-01T17:31:48;8.80;99.90
3332;DHT22;1678;50.94845400;5.30809100;2023-02-01T17:34:18;8.70;99.90
3332;DHT22;1678;50.94845400;5.30809100;2023-02-01T17:36:47;8.70;99.90
3332;DHT22;1678;50.94845400;5.30809100;2023-02-01T17:39:17;8.70;99.90
3332;DHT22;1678;50.94845400;5.30809100;2023-02-01T17:41:59;8.60;99.90
3332;DHT22;1678;50.94845400;5.30809100;2023-02-01T17:44:28;8.60;1.00
3332;DHT22;1678;50.94845400;5.30809100;2023-02-01T17:46:56;8.50;1.00
3332;DHT22;1678;50.94845400;5.30809100;2023-02-01T17:49:25;8.50;99.90
3332;DHT22;1678;50.94845400;5.30809100;2023-02-01T17:51:56;8.50;99.90
3332;DHT22;1678;50.94845400;5.30809100;2023-02-01T17:54:25;8.50;99.90
3332;DHT22;1678;50.94845400;5.30809100;2023-02-01T17:56:53;8.50;99.90
3332;DHT22;1678;50.94845400;5.30809100;2023-02-01T17:59:22;8.60;99.90
3332;DHT22;1678;50.94845400;5.30809100;2023-02-01T18:01:50;8.60;1.00
3332;DHT22;1678;50.94845400;5.30809100;2023-02-01T18:04:18;8.60;1.00
3332;DHT22;1678;50.94845400;5.30809100;2023-02-01T18:06:47;8.60;1.00
3332;DHT22;1678;50.94845400;5.30809100;2023-02-01T18:09:17;8.60;1.00
3332;DHT22;1678;50.94845400;5.30809100;2023-02-01T18:11:45;8.50;86.10
3332;DHT22;1678;50.94845400;5.30809100;2023-02-01T18:14:15;8.50;99.90
3332;DHT22;1678;50.94845400;5.30809100;2023-02-01T18:16:43;8.50;99.90
3332;DHT22;1678;50.94845400;5.30809100;2023-02-01T18:19:11;8.50;1.00
3332;DHT22;1678;50.94845400;5.30809100;2023-02-01T18:21:41;8.50;99.90
3332;DHT22;1678;50.94845400;5.30809100;2023-02-01T18:24:12;8.50;1.00
3332;DHT22;1678;50.94845400;5.30809100;2023-02-01T18:26:42;8.60;99.90
3332;DHT22;1678;50.94845400;5.30809100;2023-02-01T18:29:11;8.60;99.90
3332;DHT22;1678;50.94845400;5.30809100;2023-02-01T18:31:43;8.70;99.90
3332;DHT22;1678;50.94845400;5.30809100;2023-02-01T18:34:12;8.60;99.90
3332;DHT22;1678;50.94845400;5.30809100;2023-02-01T18:36:47;8.60;99.90
3332;DHT22;1678;50.94845400;5.30809100;2023-02-01T18:39:15;8.70;99.90
3332;DHT22;1678;50.94845400;5.30809100;2023-02-01T18:41:45;8.70;99.90
3332;DHT22;1678;50.94845400;5.30809100;2023-02-01T18:44:15;8.70;99.90
3332;DHT22;1678;50.94845400;5.30809100;2023-02-01T18:46:44;8.70;99.90
3332;DHT22;1678;50.94845400;5.30809100;2023-02-01T18:49:12;8.70;99.90
3332;DHT22;1678;50.94845400;5.30809100;2023-02-01T18:51:44;8.70;99.90
3332;DHT22;1678;50.94845400;5.30809100;2023-02-01T18:54:12;8.70;99.90
3332;DHT22;1678;50.94845400;5.30809100;2023-02-01T18:56:41;8.80;99.90
3332;DHT22;1678;50.94845400;5.30809100;2023-02-01T18:59:11;8.70;99.90
3332;DHT22;1678;50.94845400;5.30809100;2023-02-01T19:01:39;8.70;99.90
3332;DHT22;1678;50.94845400;5.30809100;2023-02-01T19:04:10;8.80;99.90
3332;DHT22;1678;50.94845400;5.30809100;2023-02-01T19:06:50;8.80;99.90
3332;DHT22;1678;50.94845400;5.30809100;2023-02-01T19:09:19;8.70;1.00
3332;DHT22;1678;50.94845400;5.30809100;2023-02-01T19:11:47;8.80;1.00
3332;DHT22;1678;50.94845400;5.30809100;2023-02-01T19:14:16;8.70;1.00
3332;DHT22;1678;50.94845400;5.30809100;2023-02-01T19:16:44;8.70;1.00
3332;DHT22;1678;50.94845400;5.30809100;2023-02-01T19:19:12;8.70;99.90
3332;DHT22;1678;50.94845400;5.30809100;2023-02-01T19:21:41;8.70;99.90
3332;DHT22;1678;50.94845400;5.30809100;2023-02-01T19:24:09;8.70;99.90
3332;DHT22;1678;50.94845400;5.30809100;2023-02-01T19:26:39;8.70;99.90
3332;DHT22;1678;50.94845400;5.30809100;2023-02-01T19:29:08;8.60;1.00
3332;DHT22;1678;50.94845400;5.30809100;2023-02-01T19:31:37;8.70;1.00
3332;DHT22;1678;50.94845400;5.30809100;2023-02-01T19:34:06;8.70;30.30
3332;DHT22;1678;50.94845400;5.30809100;2023-02-01T19:36:34;8.70;99.90
3332;DHT22;1678;50.94845400;5.30809100;2023-02-01T19:39:08;8.70;99.90
3332;DHT22;1678;50.94845400;5.30809100;2023-02-01T19:41:37;8.70;99.90
3332;DHT22;1678;50.94845400;5.30809100;2023-02-01T19:44:05;8.70;99.90
3332;DHT22;1678;50.94845400;5.30809100;2023-02-01T19:46:33;8.60;1.00
3332;DHT22;1678;50.94845400;5.30809100;2023-02-01T19:49:02;8.60;99.90
3332;DHT22;1678;50.94845400;5.30809100;2023-02-01T19:51:33;8.50;99.90
3332;DHT22;1678;50.94845400;5.30809100;2023-02-01T19:54:01;8.60;99.90
3332;DHT22;1678;50.94845400;5.30809100;2023-02-01T19:56:30;8.60;99.90
3332;DHT22;1678;50.94845400;5.30809100;2023-02-01T19:58:58;8.60;99.90
3332;DHT22;1678;50.94845400;5.30809100;2023-02-01T20:01:26;8.70;99.90
3332;DHT22;1678;50.94845400;5.30809100;2023-02-01T20:03:54;8.70;99.90
3332;DHT22;1678;50.94845400;5.30809100;2023-02-01T20:06:30;8.70;99.90
3332;DHT22;1678;50.94845400;5.30809100;2023-02-01T20:08:59;8.70;99.90
3332;DHT22;1678;50.94845400;5.30809100;2023-02-01T20:11:27;8.70;1.00
3332;DHT22;1678;50.94845400;5.30809100;2023-02-01T20:13:56;8.60;1.00
3332;DHT22;1678;50.94845400;5.30809100;2023-02-01T20:16:26;8.60;99.90
3332;DHT22;1678;50.94845400;5.30809100;2023-02-01T20:18:55;8.60;99.90
3332;DHT22;1678;50.94845400;5.30809100;2023-02-01T20:21:23;8.50;25.90
3332;DHT22;1678;50.94845400;5.30809100;2023-02-01T20:23:52;8.40;99.90
3332;DHT22;1678;50.94845400;5.30809100;2023-02-01T20:26:20;8.50;99.90
3332;DHT22;1678;50.94845400;5.30809100;2023-02-01T20:28:51;8.50;99.90
3332;DHT22;1678;50.94845400;5.30809100;2023-02-01T20:31:19;8.50;99.90
3332;DHT22;1678;50.94845400;5.30809100;2023-02-01T20:33:47;8.60;99.90
3332;DHT22;1678;50.94845400;5.30809100;2023-02-01T20:36:15;8.60;75.50
3332;DHT22;1678;50.94845400;5.30809100;2023-02-01T20:38:43;8.60;2.00
3332;DHT22;1678;50.94845400;5.30809100;2023-02-01T20:41:13;8.50;99.90
3332;DHT22;1678;50.94845400;5.30809100;2023-02-01T20:43:41;8.50;99.90
3332;DHT22;1678;50.94845400;5.30809100;2023-02-01T20:46:09;8.50;99.90
3332;DHT22;1678;50.94845400;5.30809100;2023-02-01T20:48:41;8.50;1.00
3332;DHT22;1678;50.94845400;5.30809100;2023-02-01T20:51:10;8.50;99.90
3332;DHT22;1678;50.94845400;5.30809100;2023-02-01T20:53:39;8.50;99.90
3332;DHT22;1678;50.94845400;5.30809100;2023-02-01T20:56:09;8.50;1.00
3332;DHT22;1678;50.94845400;5.30809100;2023-02-01T20:58:40;8.50;1.00
3332;DHT22;1678;50.94845400;5.30809100;2023-02-01T21:01:08;8.50;1.00
3332;DHT22;1678;50.94845400;5.30809100;2023-02-01T21:03:37;8.40;56.90
3332;DHT22;1678;50.94845400;5.30809100;2023-02-01T21:06:06;8.50;38.30
3332;DHT22;1678;50.94845400;5.30809100;2023-02-01T21:08:34;8.40;99.90
3332;DHT22;1678;50.94845400;5.30809100;2023-02-01T21:11:05;8.50;99.90
3332;DHT22;1678;50.94845400;5.30809100;2023-02-01T21:13:35;8.50;99.90
3332;DHT22;1678;50.94845400;5.30809100;2023-02-01T21:16:09;8.40;99.90
3332;DHT22;1678;50.94845400;5.30809100;2023-02-01T21:18:37;8.40;99.90
3332;DHT22;1678;50.94845400;5.30809100;2023-02-01T21:21:07;8.40;99.90
3332;DHT22;1678;50.94845400;5.30809100;2023-02-01T21:23:36;8.50;99.90
3332;DHT22;1678;50.94845400;5.30809100;2023-02-01T21:26:10;8.50;99.90
3332;DHT22;1678;50.94845400;5.30809100;2023-02-01T21:28:39;8.50;9.20
3332;DHT22;1678;50.94845400;5.30809100;2023-02-01T21:31:08;8.60;1.00
3332;DHT22;1678;50.94845400;5.30809100;2023-02-01T21:33:37;8.60;1.00
3332;DHT22;1678;50.94845400;5.30809100;2023-02-01T21:36:06;8.60;99.90
3332;DHT22;1678;50.94845400;5.30809100;2023-02-01T21:38:34;8.60;99.90
3332;DHT22;1678;50.94845400;5.30809100;2023-02-01T21:41:03;8.70;99.90
3332;DHT22;1678;50.94845400;5.30809100;2023-02-01T21:43:48;8.70;99.90
3332;DHT22;1678;50.94845400;5.30809100;2023-02-01T21:46:18;8.70;31.20
3332;DHT22;1678;50.94845400;5.30809100;2023-02-01T21:48:46;8.70;17.70
3332;DHT22;1678;50.94845400;5.30809100;2023-02-01T21:51:32;8.70;1.00
3332;DHT22;1678;50.94845400;5.30809100;2023-02-01T21:54:03;8.70;1.00
3332;DHT22;1678;50.94845400;5.30809100;2023-02-01T21:56:32;8.70;1.00
3332;DHT22;1678;50.94845400;5.30809100;2023-02-01T21:59:00;8.70;1.00
3332;DHT22;1678;50.94845400;5.30809100;2023-02-01T22:01:29;8.60;1.00
3332;DHT22;1678;50.94845400;5.30809100;2023-02-01T22:03:58;8.60;41.30
3332;DHT22;1678;50.94845400;5.30809100;2023-02-01T22:06:27;8.60;64.00
3332;DHT22;1678;50.94845400;5.30809100;2023-02-01T22:08:56;8.60;99.90
3332;DHT22;1678;50.94845400;5.30809100;2023-02-01T22:11:24;8.60;99.90
3332;DHT22;1678;50.94845400;5.30809100;2023-02-01T22:13:52;8.60;99.90
3332;DHT22;1678;50.94845400;5.30809100;2023-02-01T22:16:21;8.60;99.90
3332;DHT22;1678;50.94845400;5.30809100;2023-02-01T22:18:51;8.60;99.90
3332;DHT22;1678;50.94845400;5.30809100;2023-02-01T22:21:20;8.50;99.90
3332;DHT22;1678;50.94845400;5.30809100;2023-02-01T22:23:50;8.50;99.90
3332;DHT22;1678;50.94845400;5.30809100;2023-02-01T22:26:20;8.50;1.00
3332;DHT22;1678;50.94845400;5.30809100;2023-02-01T22:28:49;8.50;1.00
3332;DHT22;1678;50.94845400;5.30809100;2023-02-01T22:31:18;8.50;1.00
3332;DHT22;1678;50.94845400;5.30809100;2023-02-01T22:33:46;8.40;1.00
3332;DHT22;1678;50.94845400;5.30809100;2023-02-01T22:36:17;8.50;3.30
3332;DHT22;1678;50.94845400;5.30809100;2023-02-01T22:38:46;8.50;1.00
3332;DHT22;1678;50.94845400;5.30809100;2023-02-01T22:41:15;8.60;1.00
3332;DHT22;1678;50.94845400;5.30809100;2023-02-01T22:43:43;8.60;1.00
3332;DHT22;1678;50.94845400;5.30809100;2023-02-01T22:46:15;8.60;1.00
3332;DHT22;1678;50.94845400;5.30809100;2023-02-01T22:48:45;8.60;1.00
3332;DHT22;1678;50.94845400;5.30809100;2023-02-01T22:51:17;8.60;1.00
3332;DHT22;1678;50.94845400;5.30809100;2023-02-01T22:53:46;8.60;1.00
3332;DHT22;1678;50.94845400;5.30809100;2023-02-01T22:56:14;8.60;1.00
3332;DHT22;1678;50.94845400;5.30809100;2023-02-01T22:58:42;8.60;1.00
3332;DHT22;1678;50.94845400;5.30809100;2023-02-01T23:01:13;8.60;1.00
3332;DHT22;1678;50.94845400;5.30809100;2023-02-01T23:03:42;8.60;1.00
3332;DHT22;1678;50.94845400;5.30809100;2023-02-01T23:06:10;8.60;1.00
3332;DHT22;1678;50.94845400;5.30809100;2023-02-01T23:08:41;8.50;1.00
3332;DHT22;1678;50.94845400;5.30809100;2023-02-01T23:11:09;8.50;1.00
